createdAt,value
2022-09-01T00:00:32.850Z,8.43
2022-09-01T00:03:36.442Z,9.50
2022-09-01T00:06:40.987Z,7.50
2022-09-01T00:09:43.796Z,8.63
2022-09-01T00:12:49.624Z,10.85
2022-09-01T00:15:54.689Z,8.63
2022-09-01T00:18:57.655Z,10.60
2022-09-01T00:22:01.072Z,9.27
2022-09-01T00:25:04.809Z,11.23
2022-09-01T00:28:07.541Z,8.32
2022-09-01T00:31:14.833Z,7.95
2022-09-01T00:34:18.134Z,10.02
2022-09-01T00:37:21.222Z,9.30
2022-09-01T00:40:24.329Z,10.48
2022-09-01T00:43:40.284Z,8.23
2022-09-01T00:46:47.688Z,7.72
2022-09-01T00:49:53.387Z,9.00
2022-09-01T00:52:56.728Z,8.45
2022-09-01T00:55:59.569Z,8.07
2022-09-01T00:59:02.914Z,8.38
2022-09-01T01:02:07.103Z,7.65
2022-09-01T01:05:14.314Z,7.25
2022-09-01T01:08:21.662Z,6.88
2022-09-01T01:11:26.305Z,7.07
2022-09-01T01:14:35.058Z,9.02
2022-09-01T01:17:40.077Z,8.15
2022-09-01T01:21:01.216Z,6.40
2022-09-01T01:24:10.830Z,6.93
2022-09-01T01:27:17.915Z,7.32
2022-09-01T01:30:21.218Z,9.35
2022-09-01T01:33:26.938Z,7.45
2022-09-01T01:36:33.881Z,8.38
2022-09-01T01:39:36.670Z,7.30
2022-09-01T01:42:41.045Z,7.03
2022-09-01T01:45:43.983Z,8.82
2022-09-01T01:48:50.349Z,7.78
2022-09-01T01:51:57.935Z,7.72
2022-09-01T01:55:05.005Z,7.50
2022-09-01T01:58:09.849Z,7.85
2022-09-01T02:01:13.319Z,5.75
2022-09-01T02:04:17.073Z,7.85
2022-09-01T02:07:19.756Z,5.88
2022-09-01T02:10:24.523Z,5.85
2022-09-01T02:13:30.995Z,6.13
2022-09-01T02:16:35.171Z,8.40
2022-09-01T02:19:43.245Z,9.52
2022-09-01T02:22:45.939Z,6.38
2022-09-01T02:26:14.595Z,6.43
2022-09-01T02:29:18.014Z,5.88
2022-09-01T02:32:22.042Z,6.25
2022-09-01T02:35:28.886Z,5.97
2022-09-01T02:38:33.728Z,6.28
2022-09-01T02:41:36.478Z,7.15
2022-09-01T02:44:41.457Z,5.65
2022-09-01T02:47:46.698Z,6.70
2022-09-01T02:50:50.690Z,7.55
2022-09-01T02:53:54.126Z,5.40
2022-09-01T02:56:56.961Z,6.10
2022-09-01T03:00:01.297Z,7.78
2022-09-01T03:03:04.542Z,6.10
2022-09-01T03:06:09.173Z,7.30
2022-09-01T03:09:15.671Z,6.50
2022-09-01T03:12:19.768Z,6.35
2022-09-01T03:15:24.750Z,6.25
2022-09-01T03:18:27.498Z,6.25
2022-09-01T03:21:35.770Z,7.63
2022-09-01T03:24:42.968Z,6.20
2022-09-01T03:27:49.205Z,6.80
2022-09-01T03:31:01.154Z,7.47
2022-09-01T03:34:11.827Z,8.25
2022-09-01T03:37:19.870Z,8.02
2022-09-01T03:40:30.684Z,6.47
2022-09-01T03:43:37.427Z,8.13
2022-09-01T03:46:59.033Z,6.53
2022-09-01T03:50:05.326Z,8.88
2022-09-01T03:53:10.776Z,7.68
2022-09-01T03:56:16.814Z,8.00
2022-09-01T03:59:26.841Z,7.88
2022-09-01T04:02:34.589Z,7.95
2022-09-01T04:05:41.368Z,8.35
2022-09-01T04:08:46.458Z,9.40
2022-09-01T04:11:55.775Z,8.35
2022-09-01T04:15:03.506Z,7.18
2022-09-01T04:18:20.936Z,10.07
2022-09-01T04:21:30.500Z,7.20
2022-09-01T04:24:35.199Z,8.10
2022-09-01T04:27:45.233Z,8.85
2022-09-01T04:30:56.227Z,7.47
2022-09-01T04:34:14.846Z,7.03
2022-09-01T04:37:22.178Z,8.02
2022-09-01T04:40:27.512Z,7.07
2022-09-01T04:43:33.742Z,8.30
2022-09-01T04:46:47.205Z,9.30
2022-09-01T04:49:58.826Z,7.40
2022-09-01T04:53:12.820Z,7.95
2022-09-01T04:56:20.846Z,7.57
2022-09-01T04:59:30.621Z,7.10
2022-09-01T05:02:36.743Z,9.70
2022-09-01T05:05:47.675Z,7.70
2022-09-01T05:08:54.505Z,8.93
2022-09-01T05:12:05.257Z,8.52
2022-09-01T05:15:17.308Z,8.45
2022-09-01T05:18:28.552Z,8.80
2022-09-01T05:21:42.422Z,10.15
2022-09-01T05:24:57.085Z,8.50
2022-09-01T05:28:05.610Z,7.55
2022-09-01T05:31:11.837Z,8.73
2022-09-01T05:34:27.722Z,7.45
2022-09-01T05:37:36.650Z,7.78
2022-09-01T05:40:42.128Z,7.60
2022-09-01T05:43:48.175Z,8.60
2022-09-01T05:46:51.236Z,9.27
2022-09-01T05:49:55.258Z,8.80
2022-09-01T05:52:59.433Z,9.60
2022-09-01T05:56:06.949Z,9.05
2022-09-01T05:59:26.393Z,8.00
2022-09-01T06:02:30.147Z,10.65
2022-09-01T06:05:35.917Z,9.90
2022-09-01T06:08:46.738Z,9.60
2022-09-01T06:11:50.441Z,10.50
2022-09-01T06:14:54.922Z,11.85
2022-09-01T06:17:57.832Z,11.63
2022-09-01T06:21:00.615Z,11.25
2022-09-01T06:24:07.139Z,11.80
2022-09-01T06:27:10.105Z,11.50
2022-09-01T06:30:23.115Z,12.43
2022-09-01T06:33:26.857Z,11.43
2022-09-01T06:36:35.058Z,13.85
2022-09-01T06:39:39.782Z,12.85
2022-09-01T06:42:43.183Z,9.50
2022-09-01T06:45:49.725Z,10.30
2022-09-01T06:48:53.787Z,12.52
2022-09-01T06:51:56.583Z,10.52
2022-09-01T06:55:07.129Z,10.10
2022-09-01T06:58:15.463Z,8.02
2022-09-01T07:01:21.096Z,7.72
2022-09-01T07:08:05.230Z,8.50
2022-09-01T07:18:12.650Z,9.40
2022-09-01T07:24:40.009Z,8.80
2022-09-01T07:27:50.380Z,12.18
2022-09-01T07:30:54.030Z,10.77
2022-09-01T07:42:31.115Z,8.57
2022-09-01T07:44:13.690Z,9.90
2022-09-01T07:47:19.872Z,10.38
2022-09-01T07:53:51.769Z,9.40
2022-09-01T07:56:55.433Z,9.43
2022-09-01T07:59:59.492Z,8.20
2022-09-01T08:03:02.250Z,8.40
2022-09-01T08:06:06.593Z,8.45
2022-09-01T08:09:11.565Z,8.13
2022-09-01T08:12:14.804Z,8.70
2022-09-01T08:18:50.044Z,7.60
2022-09-01T08:21:52.894Z,7.13
2022-09-01T08:24:56.014Z,7.40
2022-09-01T08:28:00.637Z,7.30
2022-09-01T08:31:11.301Z,7.00
2022-09-01T08:34:14.272Z,6.10
2022-09-01T08:37:16.969Z,6.82
2022-09-01T08:40:23.511Z,7.88
2022-09-01T08:43:41.245Z,7.00
2022-09-01T08:46:47.242Z,6.78
2022-09-01T08:49:51.241Z,5.13
2022-09-01T08:53:09.763Z,4.47
2022-09-01T08:56:14.044Z,3.08
2022-09-01T08:59:17.551Z,3.60
2022-09-01T09:02:36.377Z,4.80
2022-09-01T09:05:50.867Z,4.10
2022-09-01T09:08:57.870Z,3.65
2022-09-01T09:12:10.834Z,4.53
2022-09-01T09:15:23.593Z,3.85
2022-09-01T09:18:39.789Z,4.43
2022-09-01T09:21:50.057Z,4.18
2022-09-01T09:24:59.326Z,3.58
2022-09-01T09:28:04.302Z,3.47
2022-09-01T09:31:29.774Z,3.53
2022-09-01T09:34:40.004Z,4.13
2022-09-01T09:37:46.807Z,4.65
2022-09-01T09:41:20.269Z,3.80
2022-09-01T09:44:30.040Z,3.42
2022-09-01T09:47:45.077Z,4.05
2022-09-01T09:50:51.746Z,3.95
2022-09-01T09:54:13.713Z,4.00
2022-09-01T09:57:22.398Z,4.68
2022-09-01T10:00:29.802Z,3.95
2022-09-01T10:03:43.683Z,4.78
2022-09-01T10:06:50.159Z,4.07
2022-09-01T10:09:56.668Z,4.13
2022-09-01T10:13:02.599Z,3.72
2022-09-01T10:16:11.444Z,4.35
2022-09-01T10:19:17.033Z,3.55
2022-09-01T10:22:26.947Z,4.55
2022-09-01T10:25:37.256Z,4.57
2022-09-01T10:28:49.920Z,3.97
2022-09-01T10:32:28.002Z,3.33
2022-09-01T10:35:25.920Z,3.53
2022-09-01T10:38:32.904Z,3.58
2022-09-01T10:41:59.468Z,3.40
2022-09-01T10:45:07.309Z,3.67
2022-09-01T10:48:33.287Z,2.90
2022-09-01T10:51:51.755Z,3.20
2022-09-01T10:55:05.162Z,3.67
2022-09-01T11:02:23.545Z,3.53
2022-09-01T11:05:50.797Z,3.38
2022-09-01T11:09:05.335Z,2.85
2022-09-01T11:12:20.560Z,2.78
2022-09-01T11:15:41.244Z,2.95
2022-09-01T11:18:48.722Z,2.67
2022-09-01T11:22:13.088Z,3.08
2022-09-01T11:25:44.904Z,2.67
2022-09-01T11:28:50.665Z,3.05
2022-09-01T11:31:55.820Z,2.20
2022-09-01T11:35:05.308Z,3.63
2022-09-01T11:38:14.706Z,3.22
2022-09-01T11:41:27.805Z,2.40
2022-09-01T11:44:38.626Z,2.50
2022-09-01T11:47:45.787Z,2.42
2022-09-01T11:51:00.332Z,3.50
2022-09-01T11:54:06.366Z,2.45
2022-09-01T11:57:26.407Z,2.00
2022-09-01T12:00:33.909Z,3.50
2022-09-01T12:03:40.832Z,2.05
2022-09-01T12:06:58.572Z,1.55
2022-09-01T12:10:04.537Z,2.40
2022-09-01T12:13:12.806Z,1.95
2022-09-01T12:16:25.224Z,1.90
2022-09-01T12:19:32.470Z,2.22
2022-09-01T12:22:37.599Z,2.00
2022-09-01T12:25:45.171Z,2.40
2022-09-01T12:28:53.692Z,2.80
2022-09-01T12:31:59.240Z,1.77
2022-09-01T12:35:11.354Z,1.90
2022-09-01T12:38:28.013Z,2.08
2022-09-01T12:41:40.675Z,2.10
2022-09-01T12:44:51.854Z,1.83
2022-09-01T12:47:56.789Z,2.00
2022-09-01T12:51:03.955Z,2.88
2022-09-01T12:54:09.436Z,1.90
2022-09-01T12:57:28.254Z,2.35
2022-09-01T13:00:37.181Z,1.80
2022-09-01T13:03:42.301Z,1.80
2022-09-01T13:06:47.422Z,2.10
2022-09-01T13:09:52.461Z,1.75
2022-09-01T13:12:58.740Z,1.77
2022-09-01T13:16:13.485Z,2.10
2022-09-01T13:19:27.436Z,2.42
2022-09-01T13:22:33.857Z,1.80
2022-09-01T13:25:38.891Z,2.30
2022-09-01T13:28:44.265Z,1.90
2022-09-01T13:35:29.343Z,1.73
2022-09-01T13:38:34.876Z,2.17
2022-09-01T13:41:40.052Z,2.53
2022-09-01T13:44:46.314Z,2.20
2022-09-01T13:51:27.783Z,4.18
2022-09-01T13:54:35.228Z,2.00
2022-09-01T13:57:40.506Z,2.47
2022-09-01T14:00:48.394Z,2.17
2022-09-01T14:03:58.362Z,2.60
2022-09-01T14:07:09.487Z,2.42
2022-09-01T14:10:14.923Z,1.67
2022-09-01T14:13:20.425Z,2.25
2022-09-01T14:16:25.438Z,2.15
2022-09-01T14:19:32.330Z,2.20
2022-09-01T14:22:38.607Z,1.63
2022-09-01T14:25:48.525Z,1.83
2022-09-01T14:28:53.392Z,2.08
2022-09-01T14:31:58.568Z,1.83
2022-09-01T14:35:08.624Z,2.92
2022-09-01T14:38:15.290Z,2.15
2022-09-01T14:41:22.180Z,2.25
2022-09-01T14:44:27.121Z,2.25
2022-09-01T14:47:32.255Z,2.20
2022-09-01T14:50:46.746Z,3.33
2022-09-01T14:53:52.764Z,2.00
2022-09-01T15:00:30.600Z,1.90
2022-09-01T15:03:36.908Z,1.80
2022-09-01T15:06:43.033Z,2.92
2022-09-01T15:09:47.440Z,1.70
2022-09-01T15:12:52.319Z,1.98
2022-09-01T15:15:57.391Z,1.88
2022-09-01T15:19:01.962Z,1.48
2022-09-01T15:22:08.836Z,2.15
2022-09-01T15:25:15.886Z,2.05
2022-09-01T15:28:21.564Z,1.50
2022-09-01T15:31:32.432Z,1.60
2022-09-01T15:34:37.451Z,1.80
2022-09-01T15:37:44.449Z,2.45
2022-09-01T15:40:57.113Z,1.83
2022-09-01T15:44:06.343Z,1.75
2022-09-01T15:47:11.929Z,2.55
2022-09-01T15:50:21.526Z,1.88
2022-09-01T15:53:28.332Z,1.70
2022-09-01T15:56:33.488Z,1.30
2022-09-01T15:59:40.328Z,1.48
2022-09-01T16:02:45.549Z,1.40
2022-09-01T16:05:50.878Z,1.77
2022-09-01T16:08:57.708Z,3.10
2022-09-01T16:12:02.861Z,1.70
2022-09-01T16:15:11.083Z,2.03
2022-09-01T16:18:29.398Z,1.88
2022-09-01T16:21:45.945Z,1.75
2022-09-01T16:24:54.598Z,1.98
2022-09-01T16:28:03.322Z,1.52
2022-09-01T16:31:13.599Z,1.58
2022-09-01T16:34:19.687Z,1.75
2022-09-01T16:37:41.644Z,1.90
2022-09-01T16:40:56.618Z,1.92
2022-09-01T16:44:12.915Z,2.03
2022-09-01T16:47:35.606Z,2.00
2022-09-01T16:50:50.509Z,1.70
2022-09-01T16:54:13.536Z,1.65
2022-09-01T16:57:30.394Z,2.00
2022-09-01T17:00:48.537Z,2.72
2022-09-01T17:04:00.908Z,1.60
2022-09-01T17:07:13.341Z,1.70
2022-09-01T17:10:33.158Z,1.83
2022-09-01T17:13:43.157Z,1.98
2022-09-01T17:16:50.007Z,2.20
2022-09-01T17:19:57.533Z,2.08
2022-09-01T17:23:09.235Z,1.83
2022-09-01T17:26:21.119Z,2.28
2022-09-01T17:29:35.630Z,2.78
2022-09-01T17:34:00.002Z,2.28
2022-09-01T17:37:17.109Z,2.78
2022-09-01T17:40:31.320Z,2.30
2022-09-01T17:43:59.281Z,2.58
2022-09-01T17:47:13.420Z,2.70
2022-09-01T17:50:36.623Z,2.97
2022-09-01T17:53:49.468Z,2.53
2022-09-01T17:57:11.072Z,2.53
2022-09-01T18:00:26.441Z,2.42
2022-09-01T18:04:00.236Z,3.25
2022-09-01T18:07:30.417Z,2.25
2022-09-01T18:10:42.161Z,2.35
2022-09-01T18:13:55.709Z,2.88
2022-09-01T18:17:08.126Z,2.83
2022-09-01T18:20:20.642Z,2.25
2022-09-01T18:23:31.617Z,2.63
2022-09-01T18:26:43.434Z,2.00
2022-09-01T18:29:52.082Z,2.20
2022-09-01T18:33:09.884Z,2.47
2022-09-01T18:36:30.270Z,2.10
2022-09-01T18:39:52.510Z,2.00
2022-09-01T18:43:10.024Z,1.95
2022-09-01T18:46:29.481Z,1.92
2022-09-01T18:49:50.327Z,2.42
2022-09-01T18:53:13.402Z,2.53
2022-09-01T18:56:37.990Z,2.58
2022-09-01T19:00:09.925Z,3.92
2022-09-01T19:03:29.385Z,2.70
2022-09-01T19:06:52.291Z,2.95
2022-09-01T19:10:05.547Z,2.88
2022-09-01T19:13:28.890Z,2.40
2022-09-01T19:16:47.643Z,2.55
2022-09-01T19:19:59.274Z,2.70
2022-09-01T19:23:11.780Z,2.45
2022-09-01T19:26:23.961Z,2.70
2022-09-01T19:29:38.850Z,3.40
2022-09-01T19:32:50.009Z,2.88
2022-09-01T19:36:04.880Z,3.10
2022-09-01T19:39:16.342Z,2.88
2022-09-01T19:42:29.366Z,2.60
2022-09-01T19:45:57.726Z,3.22
2022-09-01T19:49:17.837Z,2.83
2022-09-01T19:52:30.592Z,3.05
2022-09-01T19:55:42.119Z,3.03
2022-09-01T19:58:59.939Z,2.90
2022-09-01T20:02:17.546Z,2.83
2022-09-01T20:05:32.609Z,3.28
2022-09-01T20:08:45.481Z,2.50
2022-09-01T20:11:56.759Z,5.60
2022-09-01T20:15:26.343Z,9.73
2022-09-01T20:18:45.831Z,6.50
2022-09-01T20:22:12.031Z,6.15
2022-09-01T20:25:25.020Z,5.13
2022-09-01T20:28:53.503Z,4.00
2022-09-01T20:32:09.160Z,3.67
2022-09-01T20:35:23.727Z,3.60
2022-09-01T20:38:56.545Z,2.90
2022-09-01T20:42:27.316Z,3.72
2022-09-01T20:45:42.217Z,3.15
2022-09-01T20:52:27.521Z,4.07
2022-09-01T20:59:14.881Z,3.28
2022-09-01T21:02:53.906Z,3.35
2022-09-01T21:06:19.793Z,3.20
2022-09-01T21:09:39.168Z,4.82
2022-09-01T21:13:06.089Z,2.78
2022-09-01T21:20:18.653Z,2.65
2022-09-01T21:23:41.608Z,3.25
2022-09-01T21:27:23.768Z,2.90
2022-09-01T21:30:52.278Z,3.05
2022-09-01T21:34:05.686Z,2.83
2022-09-01T21:37:24.248Z,3.15
2022-09-01T21:40:46.788Z,4.60
2022-09-01T21:44:24.803Z,2.80
2022-09-01T21:47:48.045Z,2.53
2022-09-01T21:50:55.031Z,2.63
2022-09-01T21:54:20.039Z,2.70
2022-09-01T21:57:35.561Z,3.22
2022-09-01T22:01:17.668Z,4.40
2022-09-01T22:04:44.614Z,2.28
2022-09-01T22:08:17.797Z,2.60
2022-09-01T22:11:30.596Z,4.47
2022-09-01T22:14:37.060Z,3.28
2022-09-01T22:17:47.799Z,2.60
2022-09-01T22:21:03.695Z,2.67
2022-09-01T22:24:13.510Z,3.25
2022-09-01T22:27:25.343Z,2.35
2022-09-01T22:30:32.117Z,2.80
2022-09-01T22:33:42.274Z,2.50
2022-09-01T22:36:52.089Z,2.92
2022-09-01T22:40:03.692Z,2.60
2022-09-01T22:43:10.195Z,2.75
2022-09-01T22:46:19.524Z,2.70
2022-09-01T22:49:30.470Z,4.00
2022-09-01T22:52:38.765Z,2.97
2022-09-01T22:55:49.946Z,3.20
2022-09-01T22:59:02.605Z,2.92
2022-09-01T23:02:10.948Z,2.78
2022-09-01T23:05:19.319Z,2.65
2022-09-01T23:08:25.797Z,4.18
2022-09-01T23:11:32.874Z,3.47
2022-09-01T23:14:39.089Z,2.75
2022-09-01T23:17:49.809Z,3.42
2022-09-01T23:20:57.827Z,2.80
2022-09-01T23:24:04.707Z,2.92
2022-09-01T23:27:17.321Z,3.05
2022-09-01T23:30:24.722Z,2.83
2022-09-01T23:33:32.698Z,3.63
2022-09-01T23:36:40.988Z,3.15
2022-09-01T23:39:47.078Z,2.83
2022-09-01T23:42:54.187Z,2.50
2022-09-01T23:46:02.807Z,2.80
2022-09-01T23:49:09.870Z,2.47
2022-09-01T23:52:19.337Z,2.55
2022-09-01T23:55:27.761Z,3.38
2022-09-01T23:58:35.948Z,3.35
